createdAt,value
2019-04-01T00:00:00.725Z,3.12
2019-04-01T00:01:19.650Z,2.80
2019-04-01T00:02:25.500Z,2.22
2019-04-01T00:03:30.878Z,3.02
2019-04-01T00:04:35.884Z,3.77
2019-04-01T00:05:40.908Z,2.72
2019-04-01T00:06:45.788Z,2.65
2019-04-01T00:07:51.244Z,2.67
2019-04-01T00:08:56.326Z,2.85
2019-04-01T00:10:01.050Z,2.90
2019-04-01T00:11:06.306Z,2.72
2019-04-01T00:12:10.970Z,2.90
2019-04-01T00:13:16.372Z,3.15
2019-04-01T00:14:21.793Z,3.05
2019-04-01T00:15:26.779Z,2.92
2019-04-01T00:16:31.466Z,2.95
2019-04-01T00:17:36.400Z,2.87
2019-04-01T00:18:41.568Z,3.08
2019-04-01T00:19:45.989Z,3.05
2019-04-01T00:20:50.990Z,3.05
2019-04-01T00:21:55.825Z,2.83
2019-04-01T00:23:00.970Z,2.80
2019-04-01T00:24:05.888Z,2.83
2019-04-01T00:25:10.565Z,3.20
2019-04-01T00:26:15.455Z,2.77
2019-04-01T00:27:20.144Z,2.65
2019-04-01T00:28:25.184Z,2.90
2019-04-01T00:29:30.553Z,2.75
2019-04-01T00:30:35.884Z,3.02
2019-04-01T00:31:40.830Z,2.98
2019-04-01T00:32:45.440Z,2.55
2019-04-01T00:33:50.472Z,2.42
2019-04-01T00:34:55.640Z,2.55
2019-04-01T00:36:00.512Z,2.98
2019-04-01T00:37:05.203Z,3.10
2019-04-01T00:38:10.490Z,2.50
2019-04-01T00:39:15.137Z,3.20
2019-04-01T00:40:20.062Z,2.80
2019-04-01T00:41:25.321Z,2.75
2019-04-01T00:42:34.311Z,2.80
2019-04-01T00:43:52.902Z,2.98
2019-04-01T00:44:58.157Z,2.80
2019-04-01T00:46:03.456Z,2.50
2019-04-01T00:47:08.735Z,2.75
2019-04-01T00:48:14.100Z,3.17
2019-04-01T00:49:19.448Z,2.37
2019-04-01T00:50:24.139Z,2.80
2019-04-01T00:51:28.787Z,2.55
2019-04-01T00:52:34.041Z,2.80
2019-04-01T00:53:39.093Z,2.40
2019-04-01T00:54:44.342Z,3.15
2019-04-01T00:55:49.583Z,3.15
2019-04-01T00:56:54.855Z,2.77
2019-04-01T00:58:00.064Z,2.90
2019-04-01T00:59:05.380Z,2.67
2019-04-01T01:00:10.231Z,2.67
2019-04-01T01:01:15.233Z,3.12
2019-04-01T01:02:20.389Z,2.90
2019-04-01T01:03:25.060Z,2.50
2019-04-01T01:04:29.663Z,2.92
2019-04-01T01:05:35.273Z,2.45
2019-04-01T01:06:40.598Z,2.60
2019-04-01T01:07:45.087Z,2.60
2019-04-01T01:08:49.972Z,3.05
2019-04-01T01:09:55.484Z,2.90
2019-04-01T01:11:00.791Z,3.05
2019-04-01T01:12:05.823Z,2.60
2019-04-01T01:13:10.995Z,2.58
2019-04-01T01:14:16.199Z,3.12
2019-04-01T01:15:20.611Z,2.50
2019-04-01T01:16:25.310Z,2.90
2019-04-01T01:17:30.366Z,2.72
2019-04-01T01:18:38.427Z,2.33
2019-04-01T01:19:43.419Z,2.58
2019-04-01T01:20:48.239Z,2.85
2019-04-01T01:21:53.177Z,2.98
2019-04-01T01:22:58.164Z,2.83
2019-04-01T01:24:02.880Z,2.62
2019-04-01T01:25:07.956Z,2.37
2019-04-01T01:26:13.470Z,2.60
2019-04-01T01:27:18.177Z,2.50
2019-04-01T01:28:23.419Z,2.95
2019-04-01T01:29:28.695Z,2.85
2019-04-01T01:30:33.232Z,2.62
2019-04-01T01:31:39.884Z,2.85
2019-04-01T01:32:45.151Z,3.17
2019-04-01T01:33:50.581Z,2.27
2019-04-01T01:34:55.515Z,3.27
2019-04-01T01:36:00.733Z,2.70
2019-04-01T01:37:05.988Z,2.80
2019-04-01T01:38:10.973Z,2.60
2019-04-01T01:39:15.859Z,2.52
2019-04-01T01:40:20.834Z,2.35
2019-04-01T01:41:26.095Z,2.40
2019-04-01T01:42:31.268Z,2.42
2019-04-01T01:43:36.262Z,2.05
2019-04-01T01:44:41.428Z,2.65
2019-04-01T01:45:46.493Z,2.52
2019-04-01T01:46:51.832Z,2.58
2019-04-01T01:47:56.770Z,2.77
2019-04-01T01:49:01.537Z,2.20
2019-04-01T01:50:06.685Z,2.10
2019-04-01T01:51:11.646Z,2.62
2019-04-01T01:52:16.571Z,3.05
2019-04-01T01:53:21.884Z,2.30
2019-04-01T01:54:27.350Z,2.35
2019-04-01T01:55:32.802Z,2.25
2019-04-01T01:56:37.665Z,2.70
2019-04-01T01:57:42.906Z,2.52
2019-04-01T01:58:48.499Z,2.62
2019-04-01T01:59:54.152Z,2.37
2019-04-01T02:00:58.858Z,2.17
2019-04-01T02:02:04.155Z,2.60
2019-04-01T02:03:08.582Z,2.67
2019-04-01T02:04:13.257Z,2.83
2019-04-01T02:05:18.558Z,2.60
2019-04-01T02:06:23.539Z,2.90
2019-04-01T02:07:28.803Z,2.85
2019-04-01T02:08:34.298Z,2.37
2019-04-01T02:09:39.228Z,2.47
2019-04-01T02:10:43.920Z,2.08
2019-04-01T02:11:48.714Z,2.60
2019-04-01T02:12:53.930Z,2.72
2019-04-01T02:13:59.082Z,2.37
2019-04-01T02:15:03.922Z,2.40
2019-04-01T02:16:08.875Z,2.42
2019-04-01T02:17:13.415Z,3.00
2019-04-01T02:18:18.437Z,2.40
2019-04-01T02:19:24.010Z,2.35
2019-04-01T02:20:29.516Z,2.58
2019-04-01T02:21:34.691Z,2.55
2019-04-01T02:22:40.069Z,3.05
2019-04-01T02:23:45.039Z,2.30
2019-04-01T02:24:49.926Z,3.08
2019-04-01T02:25:55.533Z,2.50
2019-04-01T02:27:00.617Z,2.40
2019-04-01T02:28:05.314Z,2.02
2019-04-01T02:29:10.549Z,2.25
2019-04-01T02:30:15.700Z,2.95
2019-04-01T02:31:20.667Z,2.58
2019-04-01T02:32:25.646Z,2.30
2019-04-01T02:33:30.631Z,2.30
2019-04-01T02:34:36.138Z,2.47
2019-04-01T02:35:41.411Z,2.33
2019-04-01T02:36:46.403Z,2.35
2019-04-01T02:37:51.403Z,2.30
2019-04-01T02:38:56.634Z,2.77
2019-04-01T02:40:02.138Z,2.67
2019-04-01T02:41:06.834Z,2.40
2019-04-01T02:42:11.887Z,2.58
2019-04-01T02:43:17.245Z,3.08
2019-04-01T02:44:22.512Z,3.25
2019-04-01T02:45:27.765Z,2.22
2019-04-01T02:46:33.002Z,2.00
2019-04-01T02:47:38.009Z,2.83
2019-04-01T02:48:43.450Z,1.90
2019-04-01T02:49:48.684Z,2.40
2019-04-01T02:50:53.631Z,2.55
2019-04-01T02:51:58.610Z,2.22
2019-04-01T02:53:03.543Z,2.35
2019-04-01T02:54:08.551Z,2.40
2019-04-01T02:55:13.227Z,2.30
2019-04-01T02:56:18.194Z,2.62
2019-04-01T02:57:23.422Z,2.25
2019-04-01T02:58:28.072Z,2.42
2019-04-01T02:59:33.382Z,2.20
2019-04-01T03:00:38.641Z,2.30
2019-04-01T03:01:43.745Z,2.20
2019-04-01T03:02:48.995Z,2.10
2019-04-01T03:03:54.496Z,2.10
2019-04-01T03:04:59.462Z,2.25
2019-04-01T03:06:04.456Z,2.52
2019-04-01T03:07:09.696Z,2.27
2019-04-01T03:08:14.930Z,2.72
2019-04-01T03:09:19.860Z,2.25
2019-04-01T03:10:25.097Z,2.30
2019-04-01T03:11:30.393Z,2.50
2019-04-01T03:12:34.910Z,2.10
2019-04-01T03:13:40.242Z,2.65
2019-04-01T03:14:45.468Z,2.15
2019-04-01T03:15:50.478Z,2.37
2019-04-01T03:16:55.476Z,3.10
2019-04-01T03:18:00.448Z,2.70
2019-04-01T03:19:05.666Z,2.20
2019-04-01T03:20:10.452Z,2.15
2019-04-01T03:21:15.683Z,2.00
2019-04-01T03:22:20.827Z,2.60
2019-04-01T03:23:25.495Z,2.27
2019-04-01T03:24:30.774Z,2.72
2019-04-01T03:25:36.307Z,2.70
2019-04-01T03:26:41.345Z,2.65
2019-04-01T03:27:46.568Z,2.37
2019-04-01T03:28:51.527Z,2.87
2019-04-01T03:29:56.440Z,2.80
2019-04-01T03:31:01.448Z,2.55
2019-04-01T03:32:06.212Z,2.37
2019-04-01T03:33:11.486Z,2.65
2019-04-01T03:34:16.720Z,2.83
2019-04-01T03:35:21.390Z,2.47
2019-04-01T03:36:26.175Z,2.40
2019-04-01T03:37:31.182Z,2.55
2019-04-01T03:38:36.160Z,2.05
2019-04-01T03:39:41.200Z,2.25
2019-04-01T03:40:46.331Z,2.65
2019-04-01T03:41:51.139Z,2.40
2019-04-01T03:42:55.875Z,2.90
2019-04-01T03:44:00.843Z,2.00
2019-04-01T03:45:05.698Z,2.52
2019-04-01T03:46:10.915Z,2.52
2019-04-01T03:47:15.875Z,2.67
2019-04-01T03:48:21.102Z,2.25
2019-04-01T03:49:26.401Z,2.70
2019-04-01T03:50:31.389Z,2.40
2019-04-01T03:51:36.633Z,2.52
2019-04-01T03:52:43.080Z,3.05
2019-04-01T03:53:48.323Z,2.12
2019-04-01T03:54:53.542Z,2.50
2019-04-01T03:55:59.069Z,2.17
2019-04-01T03:57:05.749Z,2.95
2019-04-01T03:58:10.483Z,2.80
2019-04-01T03:59:15.734Z,2.52
2019-04-01T04:00:21.095Z,2.55
2019-04-01T04:01:30.122Z,2.83
2019-04-01T04:02:32.119Z,2.40
2019-04-01T04:03:37.743Z,2.47
2019-04-01T04:04:43.312Z,2.52
2019-04-01T04:05:48.964Z,2.55
2019-04-01T04:06:54.158Z,2.65
2019-04-01T04:07:59.163Z,3.12
2019-04-01T04:09:05.887Z,2.42
2019-04-01T04:10:10.340Z,2.62
2019-04-01T04:11:15.887Z,2.27
2019-04-01T04:12:20.283Z,3.05
2019-04-01T04:13:25.225Z,2.17
2019-04-01T04:14:30.437Z,2.00
2019-04-01T04:15:35.201Z,2.62
2019-04-01T04:16:40.558Z,2.95
2019-04-01T04:17:45.902Z,2.50
2019-04-01T04:18:51.399Z,2.55
2019-04-01T04:19:56.701Z,2.37
2019-04-01T04:21:01.162Z,2.22
2019-04-01T04:22:06.129Z,2.65
2019-04-01T04:23:11.121Z,2.62
2019-04-01T04:24:15.923Z,2.50
2019-04-01T04:25:21.310Z,2.58
2019-04-01T04:26:26.253Z,2.47
2019-04-01T04:27:31.479Z,2.55
2019-04-01T04:28:36.740Z,2.90
2019-04-01T04:29:42.332Z,2.10
2019-04-01T04:30:47.292Z,3.35
2019-04-01T04:31:51.989Z,2.60
2019-04-01T04:32:57.529Z,2.83
2019-04-01T04:34:02.758Z,2.40
2019-04-01T04:35:07.400Z,3.42
2019-04-01T04:36:11.848Z,2.22
2019-04-01T04:37:17.105Z,2.92
2019-04-01T04:38:21.757Z,2.45
2019-04-01T04:39:27.059Z,2.58
2019-04-01T04:40:31.666Z,2.60
2019-04-01T04:41:38.724Z,2.65
2019-04-01T04:42:43.797Z,2.37
2019-04-01T04:43:48.960Z,2.77
2019-04-01T04:44:54.779Z,2.80
2019-04-01T04:46:00.375Z,2.47
2019-04-01T04:47:05.413Z,2.05
2019-04-01T04:48:11.035Z,2.60
2019-04-01T04:49:16.572Z,2.17
2019-04-01T04:50:21.523Z,2.60
2019-04-01T04:51:26.863Z,2.72
2019-04-01T04:52:32.178Z,2.70
2019-04-01T04:53:37.195Z,2.60
2019-04-01T04:54:42.839Z,2.70
2019-04-01T04:55:48.070Z,2.80
2019-04-01T04:56:53.302Z,2.90
2019-04-01T04:57:58.286Z,2.77
2019-04-01T04:59:03.798Z,2.65
2019-04-01T05:00:09.227Z,2.98
2019-04-01T05:01:13.957Z,2.87
2019-04-01T05:02:18.930Z,2.80
2019-04-01T05:03:23.885Z,2.80
2019-04-01T05:04:28.634Z,2.62
2019-04-01T05:05:33.995Z,2.60
2019-04-01T05:06:40.540Z,2.42
2019-04-01T05:07:45.697Z,2.87
2019-04-01T05:08:50.924Z,3.02
2019-04-01T05:09:56.146Z,2.47
2019-04-01T05:11:01.439Z,2.70
2019-04-01T05:12:07.014Z,3.25
2019-04-01T05:13:11.973Z,2.55
2019-04-01T05:14:16.567Z,3.02
2019-04-01T05:15:21.789Z,3.05
2019-04-01T05:16:27.077Z,3.35
2019-04-01T05:17:32.384Z,2.52
2019-04-01T05:18:38.309Z,2.75
2019-04-01T05:19:43.644Z,2.70
2019-04-01T05:20:49.619Z,2.83
2019-04-01T05:21:55.188Z,2.65
2019-04-01T05:23:00.624Z,3.30
2019-04-01T05:24:05.279Z,3.15
2019-04-01T05:25:09.984Z,2.72
2019-04-01T05:26:16.342Z,3.00
2019-04-01T05:27:24.299Z,2.87
2019-04-01T05:28:30.985Z,2.80
2019-04-01T05:29:38.570Z,2.90
2019-04-01T05:30:46.833Z,2.80
2019-04-01T05:31:53.092Z,3.02
2019-04-01T05:32:58.378Z,2.83
2019-04-01T05:34:03.355Z,2.45
2019-04-01T05:35:09.559Z,3.40
2019-04-01T05:36:16.016Z,3.00
2019-04-01T05:37:20.993Z,2.70
2019-04-01T05:38:25.922Z,3.17
2019-04-01T05:39:30.638Z,3.20
2019-04-01T05:40:36.606Z,3.30
2019-04-01T05:41:41.693Z,2.40
2019-04-01T05:42:46.847Z,3.10
2019-04-01T05:43:51.893Z,2.87
2019-04-01T05:44:57.055Z,2.80
2019-04-01T05:46:01.993Z,2.87
2019-04-01T05:47:06.687Z,2.87
2019-04-01T05:48:12.345Z,2.80
2019-04-01T05:49:17.319Z,2.72
2019-04-01T05:50:22.553Z,2.42
2019-04-01T05:51:27.280Z,3.00
2019-04-01T05:52:32.813Z,3.27
2019-04-01T05:53:37.314Z,3.50
2019-04-01T05:54:42.793Z,2.65
2019-04-01T05:55:49.333Z,2.80
2019-04-01T05:56:54.321Z,3.72
2019-04-01T05:57:59.276Z,3.15
2019-04-01T05:59:03.937Z,2.52
2019-04-01T06:00:10.015Z,2.85
2019-04-01T06:01:18.113Z,2.95
2019-04-01T06:02:23.131Z,3.12
2019-04-01T06:03:28.067Z,3.62
2019-04-01T06:04:33.325Z,3.15
2019-04-01T06:05:38.627Z,3.15
2019-04-01T06:06:43.589Z,3.72
2019-04-01T06:07:48.580Z,3.00
2019-04-01T06:08:53.601Z,2.67
2019-04-01T06:09:58.847Z,2.80
2019-04-01T06:11:03.626Z,3.27
2019-04-01T06:12:08.565Z,3.15
2019-04-01T06:13:13.787Z,2.90
2019-04-01T06:14:18.467Z,3.05
2019-04-01T06:15:23.150Z,3.45
2019-04-01T06:16:27.803Z,3.27
2019-04-01T06:17:32.869Z,3.35
2019-04-01T06:18:38.674Z,3.42
2019-04-01T06:19:43.922Z,2.95
2019-04-01T06:20:48.891Z,3.20
2019-04-01T06:21:53.590Z,3.95
2019-04-01T06:22:58.307Z,3.17
2019-04-01T06:24:03.135Z,3.42
2019-04-01T06:25:07.933Z,3.10
2019-04-01T06:26:12.411Z,3.02
2019-04-01T06:27:17.918Z,3.60
2019-04-01T06:28:23.272Z,3.00
2019-04-01T06:29:28.359Z,3.45
2019-04-01T06:30:33.059Z,3.27
2019-04-01T06:31:38.277Z,2.92
2019-04-01T06:32:43.607Z,3.37
2019-04-01T06:33:48.834Z,3.10
2019-04-01T06:34:54.067Z,3.20
2019-04-01T06:35:59.126Z,3.20
2019-04-01T06:37:03.785Z,3.35
2019-04-01T06:38:08.987Z,3.35
2019-04-01T06:39:13.919Z,3.05
2019-04-01T06:40:18.667Z,3.33
2019-04-01T06:41:23.340Z,3.42
2019-04-01T06:42:28.623Z,3.45
2019-04-01T06:43:33.875Z,3.12
2019-04-01T06:44:38.849Z,3.22
2019-04-01T06:45:43.878Z,3.90
2019-04-01T06:46:48.583Z,3.30
2019-04-01T06:47:53.993Z,3.62
2019-04-01T06:48:59.633Z,3.17
2019-04-01T06:50:04.933Z,3.72
2019-04-01T06:51:09.659Z,3.22
2019-04-01T06:52:14.630Z,3.30
2019-04-01T06:53:19.399Z,3.20
2019-04-01T06:54:24.249Z,3.62
2019-04-01T06:55:29.192Z,3.60
2019-04-01T06:56:33.932Z,2.75
2019-04-01T06:57:38.887Z,4.08
2019-04-01T06:58:43.624Z,3.33
2019-04-01T06:59:48.577Z,2.85
2019-04-01T07:00:53.840Z,3.25
2019-04-01T07:01:58.794Z,3.83
2019-04-01T07:03:04.031Z,3.75
2019-04-01T07:04:09.520Z,3.33
2019-04-01T07:05:14.460Z,3.55
2019-04-01T07:06:19.639Z,3.08
2019-04-01T07:07:24.590Z,3.25
2019-04-01T07:08:29.536Z,3.47
2019-04-01T07:09:34.797Z,3.33
2019-04-01T07:10:39.778Z,2.90
2019-04-01T07:11:44.898Z,3.47
2019-04-01T07:12:50.337Z,3.20
2019-04-01T07:13:55.372Z,2.98
2019-04-01T07:15:00.590Z,3.02
2019-04-01T07:16:15.213Z,3.05
2019-04-01T07:17:12.480Z,3.67
2019-04-01T07:18:17.204Z,3.27
2019-04-01T07:19:24.471Z,3.35
2019-04-01T07:20:29.466Z,3.10
2019-04-01T07:21:34.941Z,3.45
2019-04-01T07:22:40.064Z,3.15
2019-04-01T07:23:44.794Z,2.90
2019-04-01T07:24:49.797Z,3.33
2019-04-01T07:25:55.140Z,3.92
2019-04-01T07:27:00.120Z,3.30
2019-04-01T07:28:04.899Z,3.27
2019-04-01T07:29:09.739Z,3.70
2019-04-01T07:30:14.720Z,2.80
2019-04-01T07:31:20.020Z,3.27
2019-04-01T07:32:25.364Z,3.70
2019-04-01T07:33:30.037Z,3.08
2019-04-01T07:34:34.818Z,3.65
2019-04-01T07:35:39.485Z,3.12
2019-04-01T07:36:45.097Z,3.62
2019-04-01T07:37:50.058Z,3.50
2019-04-01T07:38:55.121Z,3.35
2019-04-01T07:40:00.405Z,3.47
2019-04-01T07:41:05.410Z,3.45
2019-04-01T07:42:10.660Z,3.72
2019-04-01T07:43:15.453Z,3.20
2019-04-01T07:44:20.141Z,3.12
2019-04-01T07:45:25.158Z,3.35
2019-04-01T07:46:30.101Z,3.33
2019-04-01T07:47:34.763Z,3.58
2019-04-01T07:48:39.765Z,3.70
2019-04-01T07:49:44.811Z,3.50
2019-04-01T07:50:49.749Z,3.12
2019-04-01T07:51:54.972Z,3.72
2019-04-01T07:52:59.631Z,3.20
2019-04-01T07:54:04.312Z,2.98
2019-04-01T07:55:09.393Z,2.98
2019-04-01T07:56:14.050Z,3.33
2019-04-01T07:57:19.490Z,3.92
2019-04-01T07:58:24.424Z,3.45
2019-04-01T07:59:29.601Z,3.60
2019-04-01T08:00:34.956Z,3.62
2019-04-01T08:01:39.955Z,3.33
2019-04-01T08:02:44.639Z,3.27
2019-04-01T08:03:49.719Z,3.80
2019-04-01T08:04:54.655Z,3.33
2019-04-01T08:05:59.322Z,3.87
2019-04-01T08:07:04.583Z,3.90
2019-04-01T08:08:09.088Z,4.00
2019-04-01T08:09:14.349Z,3.37
2019-04-01T08:10:19.073Z,3.67
2019-04-01T08:11:24.489Z,3.92
2019-04-01T08:12:29.143Z,3.50
2019-04-01T08:13:34.037Z,3.67
2019-04-01T08:14:42.161Z,3.98
2019-04-01T08:15:47.021Z,3.90
2019-04-01T08:16:51.801Z,4.05
2019-04-01T08:17:56.472Z,4.08
2019-04-01T08:19:01.524Z,3.90
2019-04-01T08:20:06.513Z,3.50
2019-04-01T08:21:11.483Z,4.10
2019-04-01T08:22:16.197Z,4.05
2019-04-01T08:23:21.492Z,4.17
2019-04-01T08:24:26.764Z,4.22
2019-04-01T08:25:32.091Z,4.25
2019-04-01T08:26:36.863Z,3.90
2019-04-01T08:27:42.560Z,4.58
2019-04-01T08:28:47.507Z,4.50
2019-04-01T08:29:53.041Z,4.08
2019-04-01T08:30:58.299Z,3.95
2019-04-01T08:32:03.708Z,4.05
2019-04-01T08:33:08.909Z,4.00
2019-04-01T08:34:13.999Z,4.25
2019-04-01T08:35:18.997Z,4.33
2019-04-01T08:36:25.163Z,4.55
2019-04-01T08:37:30.727Z,4.47
2019-04-01T08:38:36.255Z,4.62
2019-04-01T08:39:44.033Z,4.40
2019-04-01T08:40:49.118Z,4.28
2019-04-01T08:41:55.020Z,5.35
2019-04-01T08:43:00.882Z,4.47
2019-04-01T08:44:06.198Z,4.90
2019-04-01T08:45:11.729Z,5.45
2019-04-01T08:46:16.601Z,5.05
2019-04-01T08:47:21.483Z,5.35
2019-04-01T08:48:26.839Z,4.95
2019-04-01T08:49:31.918Z,5.05
2019-04-01T08:50:37.312Z,5.37
2019-04-01T08:51:43.058Z,5.80
2019-04-01T08:52:48.310Z,4.87
2019-04-01T08:53:53.758Z,5.55
2019-04-01T08:55:04.531Z,5.10
2019-04-01T08:56:09.263Z,5.33
2019-04-01T08:57:15.164Z,5.28
2019-04-01T08:58:20.373Z,5.17
2019-04-01T08:59:25.779Z,4.70
2019-04-01T09:00:31.921Z,5.17
2019-04-01T09:01:36.763Z,5.28
2019-04-01T09:02:42.108Z,5.22
2019-04-01T09:03:46.837Z,5.45
2019-04-01T09:04:52.319Z,5.22
2019-04-01T09:05:57.074Z,5.17
2019-04-01T09:07:02.058Z,5.30
2019-04-01T09:08:06.774Z,5.30
2019-04-01T09:09:11.795Z,5.58
2019-04-01T09:10:16.477Z,5.83
2019-04-01T09:11:22.244Z,5.40
2019-04-01T09:12:27.778Z,6.08
2019-04-01T09:13:32.580Z,5.90
2019-04-01T09:14:38.360Z,5.28
2019-04-01T09:15:44.308Z,5.72
2019-04-01T09:16:51.753Z,5.40
2019-04-01T09:17:56.593Z,5.62
2019-04-01T09:19:02.531Z,5.87
2019-04-01T09:20:07.311Z,6.17
2019-04-01T09:21:12.667Z,5.83
2019-04-01T09:22:17.672Z,6.22
2019-04-01T09:23:23.038Z,5.95
2019-04-01T09:24:28.046Z,6.20
2019-04-01T09:25:32.688Z,5.72
2019-04-01T09:26:37.253Z,5.60
2019-04-01T09:27:42.699Z,5.90
2019-04-01T09:28:47.918Z,6.08
2019-04-01T09:29:52.626Z,6.33
2019-04-01T09:30:57.066Z,6.70
2019-04-01T09:32:02.349Z,6.35
2019-04-01T09:33:07.025Z,6.22
2019-04-01T09:34:12.026Z,6.17
2019-04-01T09:35:16.803Z,6.62
2019-04-01T09:36:22.100Z,6.15
2019-04-01T09:37:27.345Z,6.22
2019-04-01T09:38:32.319Z,6.00
2019-04-01T09:39:37.346Z,6.50
2019-04-01T09:40:42.747Z,6.17
2019-04-01T09:41:47.667Z,6.62
2019-04-01T09:42:59.762Z,6.37
2019-04-01T09:44:04.556Z,5.87
2019-04-01T09:45:09.756Z,6.62
2019-04-01T09:46:14.777Z,6.00
2019-04-01T09:47:20.013Z,6.50
2019-04-01T09:48:25.265Z,5.67
2019-04-01T09:49:30.557Z,6.22
2019-04-01T09:50:35.824Z,6.37
2019-04-01T09:51:48.508Z,6.42
2019-04-01T09:52:47.896Z,6.47
2019-04-01T09:53:53.112Z,6.55
2019-04-01T09:54:58.103Z,7.42
2019-04-01T09:56:03.268Z,6.35
2019-04-01T09:57:17.238Z,6.80
2019-04-01T09:58:15.202Z,6.85
2019-04-01T09:59:20.366Z,6.67
2019-04-01T10:00:25.431Z,6.08
2019-04-01T10:01:30.800Z,6.40
2019-04-01T10:02:35.776Z,6.37
2019-04-01T10:03:41.016Z,6.85
2019-04-01T10:04:45.696Z,6.85
2019-04-01T10:05:50.411Z,7.17
2019-04-01T10:06:55.733Z,7.28
2019-04-01T10:08:00.813Z,7.17
2019-04-01T10:09:08.794Z,7.17
2019-04-01T10:10:13.350Z,7.30
2019-04-01T10:11:18.289Z,7.08
2019-04-01T10:12:23.035Z,7.15
2019-04-01T10:13:27.971Z,7.08
2019-04-01T10:14:33.237Z,7.83
2019-04-01T10:15:38.017Z,7.17
2019-04-01T10:16:46.303Z,7.95
2019-04-01T10:17:51.380Z,7.65
2019-04-01T10:18:56.078Z,8.00
2019-04-01T10:20:01.650Z,7.20
2019-04-01T10:21:06.332Z,7.45
2019-04-01T10:22:11.066Z,7.37
2019-04-01T10:23:16.190Z,7.95
2019-04-01T10:24:21.200Z,7.95
2019-04-01T10:25:26.446Z,7.37
2019-04-01T10:26:31.406Z,8.35
2019-04-01T10:27:36.110Z,7.83
2019-04-01T10:28:40.949Z,7.83
2019-04-01T10:29:45.928Z,7.83
2019-04-01T10:30:50.957Z,7.80
2019-04-01T10:31:55.885Z,7.67
2019-04-01T10:33:02.601Z,7.65
2019-04-01T10:34:10.242Z,8.25
2019-04-01T10:35:16.145Z,8.38
2019-04-01T10:36:22.250Z,8.38
2019-04-01T10:37:31.153Z,7.72
2019-04-01T10:38:46.515Z,7.47
2019-04-01T10:39:54.460Z,7.75
2019-04-01T10:41:09.444Z,7.90
2019-04-01T10:42:15.019Z,8.15
2019-04-01T10:43:20.285Z,8.38
2019-04-01T10:44:26.129Z,8.23
2019-04-01T10:45:31.250Z,7.67
2019-04-01T10:46:36.275Z,8.00
2019-04-01T10:47:41.322Z,8.03
2019-04-01T10:48:46.169Z,7.95
2019-04-01T10:49:51.791Z,7.78
2019-04-01T10:50:57.169Z,7.67
2019-04-01T10:52:02.551Z,7.40
2019-04-01T10:53:08.008Z,7.42
2019-04-01T10:54:13.356Z,8.23
2019-04-01T10:55:18.313Z,8.40
2019-04-01T10:56:22.975Z,8.63
2019-04-01T10:57:28.636Z,8.23
2019-04-01T10:58:45.356Z,8.80
2019-04-01T10:59:53.986Z,7.45
2019-04-01T11:01:09.602Z,8.15
2019-04-01T11:02:18.276Z,6.87
2019-04-01T11:03:21.282Z,7.55
2019-04-01T11:04:26.547Z,7.28
2019-04-01T11:05:31.477Z,8.30
2019-04-01T11:06:36.163Z,7.55
2019-04-01T11:07:41.238Z,8.68
2019-04-01T11:08:46.789Z,7.80
2019-04-01T11:09:52.452Z,7.62
2019-04-01T11:10:57.187Z,8.15
2019-04-01T11:12:02.153Z,7.97
2019-04-01T11:13:07.165Z,8.00
2019-04-01T11:14:12.374Z,7.72
2019-04-01T11:15:19.989Z,7.92
2019-04-01T11:16:25.344Z,8.45
2019-04-01T11:17:30.453Z,7.97
2019-04-01T11:18:52.638Z,8.28
2019-04-01T11:20:05.659Z,7.95
2019-04-01T11:21:10.416Z,8.60
2019-04-01T11:22:15.364Z,8.25
2019-04-01T11:23:20.299Z,8.55
2019-04-01T11:24:25.943Z,8.50
2019-04-01T11:25:30.921Z,9.03
2019-04-01T11:26:36.612Z,7.65
2019-04-01T11:27:42.017Z,7.30
2019-04-01T11:28:47.069Z,8.45
2019-04-01T11:29:52.074Z,7.72
2019-04-01T11:30:57.631Z,7.35
2019-04-01T11:32:03.411Z,7.72
2019-04-01T11:33:08.584Z,7.03
2019-04-01T11:34:13.943Z,8.10
2019-04-01T11:35:18.783Z,7.92
2019-04-01T11:36:24.019Z,7.12
2019-04-01T11:37:28.729Z,7.12
2019-04-01T11:38:34.294Z,8.38
2019-04-01T11:39:39.600Z,7.90
2019-04-01T11:40:44.648Z,7.40
2019-04-01T11:41:49.777Z,7.75
2019-04-01T11:42:55.018Z,8.55
2019-04-01T11:44:00.039Z,7.92
2019-04-01T11:45:05.917Z,7.55
2019-04-01T11:46:12.691Z,7.83
2019-04-01T11:47:18.045Z,8.05
2019-04-01T11:48:23.615Z,8.03
2019-04-01T11:49:28.871Z,8.40
2019-04-01T11:50:33.462Z,8.28
2019-04-01T11:51:39.948Z,8.85
2019-04-01T11:52:45.112Z,8.35
2019-04-01T11:53:50.145Z,8.60
2019-04-01T11:54:55.415Z,8.33
2019-04-01T11:56:01.557Z,8.48
2019-04-01T11:57:06.516Z,8.38
2019-04-01T11:58:12.399Z,7.95
2019-04-01T11:59:17.167Z,8.65
2019-04-01T12:00:21.823Z,8.50
2019-04-01T12:01:26.516Z,8.40
2019-04-01T12:02:31.200Z,7.85
2019-04-01T12:03:36.133Z,7.62
2019-04-01T12:04:42.387Z,7.83
2019-04-01T12:05:47.396Z,8.15
2019-04-01T12:06:52.996Z,8.00
2019-04-01T12:07:58.250Z,7.75
2019-04-01T12:09:05.266Z,7.60
2019-04-01T12:10:10.580Z,7.62
2019-04-01T12:11:15.561Z,8.50
2019-04-01T12:12:24.126Z,7.60
2019-04-01T12:13:28.914Z,8.05
2019-04-01T12:14:33.466Z,8.78
2019-04-01T12:15:39.157Z,7.70
2019-04-01T12:16:44.765Z,7.53
2019-04-01T12:17:49.836Z,8.30
2019-04-01T12:18:54.842Z,7.72
2019-04-01T12:20:09.908Z,7.80
2019-04-01T12:21:41.518Z,7.83
2019-04-01T12:22:54.172Z,7.60
2019-04-01T12:38:26.777Z,6.92
2019-04-01T12:57:03.768Z,8.35
2019-04-01T12:58:08.941Z,7.97
2019-04-01T12:59:14.187Z,7.17
2019-04-01T13:00:19.980Z,7.15
2019-04-01T13:01:25.330Z,6.83
2019-04-01T13:02:30.843Z,7.20
2019-04-01T13:03:36.282Z,7.28
2019-04-01T13:04:40.946Z,7.17
2019-04-01T13:05:45.684Z,6.95
2019-04-01T13:06:51.654Z,6.60
2019-04-01T13:07:57.187Z,7.10
2019-04-01T13:09:02.445Z,7.70
2019-04-01T13:10:08.373Z,7.33
2019-04-01T13:11:13.595Z,7.60
2019-04-01T13:12:21.484Z,7.10
2019-04-01T13:13:26.787Z,7.78
2019-04-01T13:14:32.261Z,7.35
2019-04-01T13:15:36.940Z,7.85
2019-04-01T13:16:43.090Z,8.10
2019-04-01T13:17:47.430Z,7.58
2019-04-01T13:18:52.379Z,7.83
2019-04-01T13:19:57.376Z,7.67
2019-04-01T13:21:02.555Z,8.65
2019-04-01T13:22:09.063Z,7.87
2019-04-01T13:23:13.927Z,8.13
2019-04-01T13:24:18.601Z,7.58
2019-04-01T13:25:24.249Z,7.72
2019-04-01T13:26:28.928Z,7.22
2019-04-01T13:27:33.600Z,7.90
2019-04-01T13:28:42.256Z,7.95
2019-04-01T13:29:45.484Z,8.30
2019-04-01T13:30:50.557Z,7.42
2019-04-01T13:31:55.591Z,7.37
2019-04-01T13:33:00.551Z,7.15
2019-04-01T13:34:05.522Z,7.65
2019-04-01T13:35:10.421Z,7.90
2019-04-01T13:36:15.106Z,7.65
2019-04-01T13:37:19.537Z,7.62
2019-04-01T13:38:24.687Z,7.92
2019-04-01T13:39:29.627Z,8.00
2019-04-01T13:40:34.589Z,7.95
2019-04-01T13:41:42.561Z,8.15
2019-04-01T13:42:46.484Z,7.78
2019-04-01T13:43:52.962Z,8.20
2019-04-01T13:45:01.653Z,9.45
2019-04-01T13:46:04.929Z,7.95
2019-04-01T13:47:10.147Z,8.00
2019-04-01T13:48:15.153Z,7.85
2019-04-01T13:49:20.013Z,7.90
2019-04-01T13:50:24.674Z,8.03
2019-04-01T13:51:30.247Z,7.50
2019-04-01T13:52:35.300Z,7.58
2019-04-01T13:53:40.282Z,7.30
2019-04-01T13:54:45.497Z,7.00
2019-04-01T13:55:50.748Z,8.23
2019-04-01T13:56:57.500Z,7.22
2019-04-01T13:58:02.800Z,8.08
2019-04-01T13:59:09.694Z,6.87
2019-04-01T14:00:14.062Z,7.70
2019-04-01T14:01:19.109Z,7.58
2019-04-01T14:02:23.851Z,7.60
2019-04-01T14:03:29.157Z,7.12
2019-04-01T14:04:34.788Z,7.70
2019-04-01T14:05:39.778Z,7.95
2019-04-01T14:06:45.096Z,7.00
2019-04-01T14:07:50.524Z,6.45
2019-04-01T14:08:55.477Z,6.40
2019-04-01T14:10:00.371Z,6.65
2019-04-01T14:11:06.136Z,7.15
2019-04-01T14:12:10.840Z,7.42
2019-04-01T14:13:16.105Z,7.25
2019-04-01T14:14:20.949Z,7.62
2019-04-01T14:15:25.763Z,7.40
2019-04-01T14:16:30.352Z,7.03
2019-04-01T14:17:35.605Z,8.13
2019-04-01T14:18:40.284Z,7.28
2019-04-01T14:19:45.594Z,7.85
2019-04-01T14:20:51.191Z,7.58
2019-04-01T14:21:56.657Z,7.60
2019-04-01T14:23:01.611Z,7.20
2019-04-01T14:24:06.356Z,7.53
2019-04-01T14:25:11.594Z,7.12
2019-04-01T14:26:16.462Z,6.83
2019-04-01T14:27:21.617Z,7.50
2019-04-01T14:28:26.619Z,7.92
2019-04-01T14:29:31.636Z,6.58
2019-04-01T14:30:36.731Z,8.30
2019-04-01T14:31:41.596Z,7.60
2019-04-01T14:32:46.450Z,7.83
2019-04-01T14:33:51.558Z,7.12
2019-04-01T14:34:56.278Z,7.60
2019-04-01T14:36:01.408Z,7.62
2019-04-01T14:37:09.658Z,6.78
2019-04-01T14:38:13.386Z,7.85
2019-04-01T14:39:18.323Z,7.75
2019-04-01T14:40:23.069Z,7.60
2019-04-01T14:41:28.190Z,7.60
2019-04-01T14:42:37.000Z,8.40
2019-04-01T14:43:41.049Z,7.92
2019-04-01T14:44:58.602Z,7.15
2019-04-01T14:46:03.971Z,6.90
2019-04-01T14:47:09.309Z,6.87
2019-04-01T14:48:14.592Z,6.42
2019-04-01T14:49:20.116Z,6.05
2019-04-01T14:50:25.512Z,6.58
2019-04-01T14:51:30.207Z,6.30
2019-04-01T14:52:35.446Z,6.28
2019-04-01T14:53:41.175Z,6.95
2019-04-01T14:54:46.049Z,6.95
2019-04-01T14:55:51.447Z,6.72
2019-04-01T14:56:57.029Z,6.58
2019-04-01T14:58:02.482Z,6.20
2019-04-01T14:59:07.379Z,6.10
2019-04-01T15:00:14.355Z,6.35
2019-04-01T15:01:19.302Z,6.50
2019-04-01T15:02:24.254Z,6.95